createdAt,value
2023-04-04T00:01:45.192Z,85.40
2023-04-04T00:04:14.300Z,85.40
2023-04-04T00:06:45.779Z,85.30
2023-04-04T00:09:15.948Z,85.30
2023-04-04T00:11:44.981Z,85.50
2023-04-04T00:14:15.537Z,85.60
2023-04-04T00:16:44.527Z,85.70
2023-04-04T00:19:18.102Z,85.80
2023-04-04T00:21:47.795Z,85.90
2023-04-04T00:24:16.867Z,86.00
2023-04-04T00:26:45.908Z,86.10
2023-04-04T00:29:16.415Z,86.10
2023-04-04T00:31:45.571Z,86.10
2023-04-04T00:34:14.762Z,86.20
2023-04-04T00:36:44.239Z,86.20
2023-04-04T00:39:13.298Z,86.30
2023-04-04T00:41:42.783Z,86.40
2023-04-04T00:44:12.928Z,86.30
2023-04-04T00:46:43.656Z,86.20
2023-04-04T00:49:12.828Z,86.10
2023-04-04T00:51:41.872Z,86.00
2023-04-04T00:54:11.211Z,85.90
2023-04-04T00:56:41.290Z,85.80
2023-04-04T00:59:10.426Z,85.60
2023-04-04T01:01:39.680Z,85.40
2023-04-04T01:04:10.343Z,85.40
2023-04-04T01:06:39.552Z,85.20
2023-04-04T01:09:08.743Z,85.10
2023-04-04T01:11:38.635Z,85.00
2023-04-04T01:14:08.780Z,84.90
2023-04-04T01:16:38.368Z,85.50
2023-04-04T01:19:15.596Z,84.50
2023-04-04T01:21:45.557Z,84.30
2023-04-04T01:24:18.786Z,84.20
2023-04-04T01:26:56.611Z,84.20
2023-04-04T01:29:26.126Z,84.10
2023-04-04T01:32:02.904Z,84.10
2023-04-04T01:34:44.094Z,84.10
2023-04-04T01:37:18.093Z,84.00
2023-04-04T01:39:51.778Z,83.90
2023-04-04T01:42:25.313Z,83.80
2023-04-04T01:44:57.751Z,83.80
2023-04-04T01:47:39.913Z,83.70
2023-04-04T01:50:11.235Z,83.60
2023-04-04T01:52:40.544Z,83.40
2023-04-04T01:55:10.233Z,83.40
2023-04-04T01:57:41.543Z,83.40
2023-04-04T02:00:11.682Z,83.20
2023-04-04T02:02:46.252Z,83.30
2023-04-04T02:05:15.877Z,83.10
2023-04-04T02:07:49.742Z,82.90
2023-04-04T02:10:28.100Z,82.80
2023-04-04T02:12:59.039Z,82.80
2023-04-04T02:15:28.068Z,82.80
2023-04-04T02:17:57.209Z,82.80
2023-04-04T02:20:29.309Z,82.90
2023-04-04T02:22:58.568Z,82.90
2023-04-04T02:25:27.969Z,82.90
2023-04-04T02:27:58.393Z,82.90
2023-04-04T02:30:29.691Z,82.90
2023-04-04T02:32:59.976Z,83.00
2023-04-04T02:35:29.076Z,82.90
2023-04-04T02:37:58.080Z,82.90
2023-04-04T02:40:35.968Z,83.10
2023-04-04T02:43:06.442Z,83.20
2023-04-04T02:45:36.061Z,83.20
2023-04-04T02:48:15.882Z,83.40
2023-04-04T02:50:49.067Z,83.30
2023-04-04T02:53:18.452Z,83.30
2023-04-04T02:55:50.180Z,83.50
2023-04-04T02:58:20.768Z,83.70
2023-04-04T03:00:55.936Z,83.70
2023-04-04T03:03:29.727Z,83.80
2023-04-04T03:06:00.126Z,84.00
2023-04-04T03:08:29.376Z,84.10
2023-04-04T03:11:01.033Z,84.00
2023-04-04T03:13:31.514Z,84.00
2023-04-04T03:16:02.943Z,84.00
2023-04-04T03:18:36.919Z,83.90
2023-04-04T03:21:06.430Z,83.80
2023-04-04T03:23:35.466Z,83.70
2023-04-04T03:26:04.481Z,83.70
2023-04-04T03:28:34.966Z,83.70
2023-04-04T03:31:06.289Z,83.70
2023-04-04T03:33:38.311Z,83.80
2023-04-04T03:36:12.495Z,83.70
2023-04-04T03:38:42.003Z,83.70
2023-04-04T03:41:12.607Z,83.70
2023-04-04T03:43:43.028Z,83.60
2023-04-04T03:46:13.881Z,83.50
2023-04-04T03:48:43.218Z,83.50
2023-04-04T03:51:13.169Z,83.50
2023-04-04T03:53:44.817Z,83.40
2023-04-04T03:56:13.880Z,83.50
2023-04-04T03:58:44.555Z,84.60
2023-04-04T04:01:21.378Z,83.90
2023-04-04T04:03:50.721Z,83.90
2023-04-04T04:06:20.286Z,83.80
2023-04-04T04:08:50.569Z,83.90
2023-04-04T04:11:19.669Z,83.80
2023-04-04T04:13:50.066Z,83.70
2023-04-04T04:16:19.904Z,83.60
2023-04-04T04:18:49.865Z,83.60
2023-04-04T04:21:27.185Z,83.40
2023-04-04T04:23:56.298Z,83.40
2023-04-04T04:26:25.349Z,83.30
2023-04-04T04:28:56.524Z,83.40
2023-04-04T04:31:31.824Z,83.50
2023-04-04T04:34:03.382Z,83.50
2023-04-04T04:36:33.510Z,83.50
2023-04-04T04:39:38.016Z,83.40
2023-04-04T04:42:17.256Z,83.40
2023-04-04T04:44:54.206Z,83.30
2023-04-04T04:47:24.130Z,83.20
2023-04-04T04:49:53.982Z,83.30
2023-04-04T04:52:33.858Z,83.30
2023-04-04T04:55:03.489Z,83.30
2023-04-04T04:57:34.342Z,83.40
2023-04-04T05:00:10.153Z,83.50
2023-04-04T05:02:39.336Z,83.50
2023-04-04T05:05:12.235Z,83.50
2023-04-04T05:07:46.681Z,83.50
2023-04-04T05:10:16.286Z,83.50
2023-04-04T05:12:46.340Z,83.50
2023-04-04T05:15:23.623Z,83.60
2023-04-04T05:17:54.235Z,83.60
2023-04-04T05:20:24.429Z,83.70
2023-04-04T05:22:55.142Z,83.60
2023-04-04T05:25:36.787Z,83.60
2023-04-04T05:28:06.538Z,83.60
2023-04-04T05:30:39.474Z,83.60
2023-04-04T05:33:14.342Z,83.70
2023-04-04T05:35:49.308Z,83.70
2023-04-04T05:38:19.857Z,83.80
2023-04-04T05:40:55.089Z,83.80
2023-04-04T05:43:25.760Z,84.00
2023-04-04T05:46:07.023Z,84.10
2023-04-04T05:48:46.689Z,84.40
2023-04-04T05:51:16.292Z,84.60
2023-04-04T05:53:52.380Z,84.90
2023-04-04T05:56:28.657Z,85.00
2023-04-04T05:58:59.977Z,85.10
2023-04-04T06:01:33.365Z,85.20
2023-04-04T06:04:09.659Z,85.40
2023-04-04T06:06:39.039Z,85.50
2023-04-04T06:09:08.893Z,85.70
2023-04-04T06:11:38.074Z,85.80
2023-04-04T06:14:11.600Z,86.00
2023-04-04T06:16:46.214Z,86.10
2023-04-04T06:19:17.930Z,86.20
2023-04-04T06:21:47.495Z,86.40
2023-04-04T06:24:17.185Z,86.50
2023-04-04T06:26:51.366Z,86.60
2023-04-04T06:29:22.746Z,86.70
2023-04-04T06:31:54.480Z,86.70
2023-04-04T06:34:35.359Z,86.80
2023-04-04T06:37:04.993Z,86.90
2023-04-04T06:39:40.704Z,87.00
2023-04-04T06:42:15.565Z,87.00
2023-04-04T06:44:50.524Z,87.00
2023-04-04T06:47:21.479Z,87.00
2023-04-04T06:49:50.611Z,87.10
2023-04-04T06:52:19.743Z,87.10
2023-04-04T06:54:49.207Z,87.10
2023-04-04T06:57:19.312Z,87.10
2023-04-04T06:59:48.946Z,87.10
2023-04-04T07:02:18.020Z,87.10
2023-04-04T07:04:48.527Z,87.20
2023-04-04T07:07:19.885Z,87.10
2023-04-04T07:09:48.976Z,87.20
2023-04-04T07:12:19.414Z,87.20
2023-04-04T07:14:48.509Z,87.10
2023-04-04T07:17:24.684Z,87.10
2023-04-04T07:19:55.678Z,87.00
2023-04-04T07:22:25.091Z,87.10
2023-04-04T07:24:54.724Z,87.10
2023-04-04T07:27:23.854Z,87.10
2023-04-04T07:29:53.053Z,87.10
2023-04-04T07:32:24.508Z,87.10
2023-04-04T07:34:55.625Z,87.10
2023-04-04T07:37:26.665Z,87.00
2023-04-04T07:39:55.852Z,87.10
2023-04-04T07:42:25.411Z,87.00
2023-04-04T07:44:54.629Z,86.90
2023-04-04T07:47:24.253Z,86.90
2023-04-04T07:49:53.520Z,86.90
2023-04-04T07:52:24.214Z,86.90
2023-04-04T07:54:54.202Z,86.90
2023-04-04T07:57:23.315Z,86.90
2023-04-04T07:59:52.390Z,87.00
2023-04-04T08:02:21.900Z,86.80
2023-04-04T08:04:53.285Z,86.70
2023-04-04T08:07:24.044Z,86.50
2023-04-04T08:09:56.280Z,86.50
2023-04-04T08:12:25.549Z,86.40
2023-04-04T08:14:54.644Z,86.40
2023-04-04T08:17:23.806Z,86.30
2023-04-04T08:19:54.058Z,86.30
2023-04-04T08:22:24.676Z,86.20
2023-04-04T08:24:53.874Z,86.20
2023-04-04T08:27:23.115Z,86.10
2023-04-04T08:29:52.532Z,85.90
2023-04-04T08:32:23.963Z,85.90
2023-04-04T08:34:53.061Z,85.70
2023-04-04T08:37:23.851Z,85.60
2023-04-04T08:39:52.929Z,85.50
2023-04-04T08:42:22.466Z,85.30
2023-04-04T08:44:54.527Z,85.10
2023-04-04T08:47:26.762Z,85.00
2023-04-04T08:49:56.876Z,85.00
2023-04-04T08:52:31.326Z,85.00
2023-04-04T08:55:00.669Z,85.70
2023-04-04T08:57:30.547Z,84.80
2023-04-04T08:59:59.900Z,84.80
2023-04-04T09:02:35.598Z,84.90
2023-04-04T09:05:07.116Z,84.80
2023-04-04T09:07:39.603Z,84.70
2023-04-04T09:10:11.835Z,84.60
2023-04-04T09:12:46.338Z,84.50
2023-04-04T09:15:16.669Z,84.60
2023-04-04T09:17:45.906Z,84.60
2023-04-04T09:20:41.060Z,84.60
2023-04-04T09:23:14.456Z,84.50
2023-04-04T09:28:22.377Z,84.50
2023-04-04T09:30:52.779Z,84.60
2023-04-04T09:33:25.344Z,84.50
2023-04-04T09:36:00.561Z,84.40
2023-04-04T09:38:32.417Z,84.40
2023-04-04T09:41:01.541Z,84.30
2023-04-04T09:43:33.904Z,84.30
2023-04-04T09:46:08.335Z,84.10
2023-04-04T09:48:40.329Z,83.90
2023-04-04T09:51:13.881Z,83.70
2023-04-04T09:53:48.669Z,83.40
2023-04-04T09:56:20.363Z,83.30
2023-04-04T09:59:03.394Z,83.10
2023-04-04T10:01:34.734Z,83.20
2023-04-04T10:04:06.276Z,83.10
2023-04-04T10:06:38.571Z,83.00
2023-04-04T10:09:18.575Z,83.00
2023-04-04T10:11:48.608Z,82.90
2023-04-04T10:14:18.329Z,82.80
2023-04-04T10:16:47.664Z,82.70
2023-04-04T10:19:19.406Z,82.60
2023-04-04T10:21:50.068Z,82.50
2023-04-04T10:24:20.674Z,82.30
2023-04-04T10:26:49.922Z,82.20
2023-04-04T10:29:19.398Z,82.10
2023-04-04T10:31:51.428Z,82.10
2023-04-04T10:34:26.813Z,82.00
2023-04-04T10:37:04.641Z,81.90
2023-04-04T10:39:39.556Z,81.90
2023-04-04T10:42:12.095Z,81.90
2023-04-04T10:44:42.682Z,81.90
2023-04-04T10:47:16.626Z,81.90
2023-04-04T10:49:47.001Z,81.90
2023-04-04T10:52:19.685Z,81.60
2023-04-04T10:54:52.532Z,82.40
2023-04-04T10:57:23.304Z,81.30
2023-04-04T10:59:59.446Z,81.20
2023-04-04T11:02:50.017Z,81.10
2023-04-04T11:05:30.461Z,80.60
2023-04-04T11:08:07.318Z,80.60
2023-04-04T11:10:40.538Z,80.40
2023-04-04T11:13:14.259Z,80.00
2023-04-04T11:15:50.917Z,79.70
2023-04-04T11:18:33.346Z,79.50
2023-04-04T11:21:08.214Z,79.30
2023-04-04T11:24:18.359Z,79.10
2023-04-04T11:26:48.876Z,78.80
2023-04-04T11:29:53.924Z,78.90
2023-04-04T11:32:47.894Z,78.80
2023-04-04T11:35:24.912Z,78.80
2023-04-04T11:38:03.943Z,78.90
2023-04-04T11:40:39.265Z,78.60
2023-04-04T11:43:14.023Z,78.70
2023-04-04T11:45:47.029Z,78.60
2023-04-04T11:48:18.188Z,78.70
2023-04-04T11:50:51.461Z,78.50
2023-04-04T11:53:21.196Z,78.60
2023-04-04T11:55:53.112Z,78.50
2023-04-04T11:58:24.251Z,78.40
2023-04-04T12:00:53.320Z,78.30
2023-04-04T12:03:24.119Z,78.30
2023-04-04T12:05:56.334Z,78.30
2023-04-04T12:08:25.483Z,78.20
2023-04-04T12:10:55.280Z,77.90
2023-04-04T12:13:32.293Z,78.60
2023-04-04T12:16:02.084Z,77.50
2023-04-04T12:18:31.397Z,77.30
2023-04-04T12:21:00.802Z,77.00
2023-04-04T12:23:34.411Z,76.70
2023-04-04T12:26:05.789Z,76.50
2023-04-04T12:28:38.288Z,76.40
2023-04-04T12:31:08.391Z,76.30
2023-04-04T12:33:38.170Z,76.20
2023-04-04T12:36:09.082Z,76.10
2023-04-04T12:38:57.844Z,76.00
2023-04-04T12:41:27.759Z,75.90
2023-04-04T12:44:05.707Z,75.80
2023-04-04T12:46:40.008Z,75.30
2023-04-04T12:49:11.772Z,74.90
2023-04-04T12:51:45.719Z,74.70
2023-04-04T12:54:28.337Z,74.30
2023-04-04T12:56:58.138Z,74.10
2023-04-04T12:59:31.889Z,74.10
2023-04-04T13:02:02.917Z,74.10
2023-04-04T13:04:33.482Z,73.90
2023-04-04T13:07:03.388Z,73.70
2023-04-04T13:09:33.174Z,73.90
2023-04-04T13:12:04.495Z,73.90
2023-04-04T13:14:59.797Z,73.80
2023-04-04T13:17:45.246Z,73.60
2023-04-04T13:20:16.286Z,73.60
2023-04-04T13:22:45.828Z,73.60
2023-04-04T13:25:14.897Z,73.60
2023-04-04T13:27:43.904Z,73.50
2023-04-04T13:30:15.047Z,74.20
2023-04-04T13:32:44.240Z,73.20
2023-04-04T13:35:17.180Z,73.00
2023-04-04T13:37:46.337Z,72.90
2023-04-04T13:40:15.535Z,72.60
2023-04-04T13:42:44.599Z,72.20
2023-04-04T13:45:16.013Z,72.10
2023-04-04T13:47:45.636Z,72.20
2023-04-04T13:50:14.767Z,72.10
2023-04-04T13:52:43.755Z,72.10
2023-04-04T13:55:12.908Z,72.00
2023-04-04T13:57:42.090Z,72.00
2023-04-04T14:00:15.114Z,71.90
2023-04-04T14:02:44.255Z,71.50
2023-04-04T14:05:13.351Z,71.80
2023-04-04T14:07:42.825Z,71.90
2023-04-04T14:10:12.635Z,72.20
2023-04-04T14:12:42.208Z,72.30
2023-04-04T14:15:12.433Z,72.30
2023-04-04T14:17:44.027Z,72.00
2023-04-04T14:20:13.775Z,71.80
2023-04-04T14:22:42.879Z,71.80
2023-04-04T14:25:14.454Z,71.80
2023-04-04T14:27:43.647Z,71.80
2023-04-04T14:30:13.580Z,71.80
2023-04-04T14:32:44.344Z,71.70
2023-04-04T14:35:13.505Z,71.70
2023-04-04T14:37:42.681Z,71.50
2023-04-04T14:40:13.374Z,71.20
2023-04-04T14:42:42.445Z,71.20
2023-04-04T14:45:12.610Z,71.20
2023-04-04T14:47:43.220Z,71.20
2023-04-04T14:50:12.747Z,71.20
2023-04-04T14:52:42.005Z,71.20
2023-04-04T14:55:11.516Z,71.20
2023-04-04T14:58:00.613Z,71.80
2023-04-04T15:00:31.753Z,72.50
2023-04-04T15:03:03.162Z,73.20
2023-04-04T15:05:34.060Z,73.30
2023-04-04T15:08:03.253Z,73.20
2023-04-04T15:10:32.684Z,73.00
2023-04-04T15:13:01.978Z,72.50
2023-04-04T15:15:32.680Z,72.10
2023-04-04T15:18:04.281Z,71.60
2023-04-04T15:20:33.348Z,71.20
2023-04-04T15:23:02.522Z,70.90
2023-04-04T15:25:32.029Z,70.50
2023-04-04T15:28:02.213Z,70.10
2023-04-04T15:30:31.996Z,69.70
2023-04-04T15:33:01.175Z,69.50
2023-04-04T15:35:32.008Z,69.40
2023-04-04T15:38:03.589Z,69.40
2023-04-04T15:40:32.777Z,69.20
2023-04-04T15:43:02.068Z,69.00
2023-04-04T15:45:32.330Z,68.70
2023-04-04T15:48:01.692Z,68.70
2023-04-04T15:50:32.643Z,68.70
2023-04-04T15:56:38.350Z,68.70
2023-04-04T15:59:08.241Z,68.30
2023-04-04T16:01:38.056Z,68.40
2023-04-04T16:04:07.366Z,68.50
2023-04-04T16:06:38.861Z,68.40
2023-04-04T16:09:08.088Z,68.50
2023-04-04T16:11:37.139Z,68.50
2023-04-04T16:14:09.366Z,68.20
2023-04-04T16:16:39.670Z,68.30
2023-04-04T16:19:09.106Z,68.20
2023-04-04T16:21:39.594Z,68.20
2023-04-04T16:24:09.479Z,68.30
2023-04-04T16:26:39.715Z,68.40
2023-04-04T16:29:08.916Z,68.40
2023-04-04T16:31:38.055Z,68.70
2023-04-04T16:34:07.559Z,68.90
2023-04-04T16:36:36.628Z,69.00
2023-04-04T16:39:08.007Z,69.00
2023-04-04T16:41:40.739Z,69.00
2023-04-04T16:44:09.964Z,69.10
2023-04-04T16:46:39.055Z,69.10
2023-04-04T16:49:08.506Z,69.10
2023-04-04T16:51:37.580Z,69.30
2023-04-04T16:54:08.490Z,69.30
2023-04-04T16:56:37.526Z,69.30
2023-04-04T16:59:07.083Z,69.40
2023-04-04T17:01:38.351Z,69.50
2023-04-04T17:04:07.494Z,69.60
2023-04-04T17:06:36.549Z,69.70
2023-04-04T17:09:05.582Z,69.80
2023-04-04T17:11:36.152Z,69.80
2023-04-04T17:14:05.161Z,69.80
2023-04-04T17:16:34.253Z,69.80
2023-04-04T17:19:03.438Z,69.80
2023-04-04T17:21:33.547Z,70.00
2023-04-04T17:24:02.720Z,70.00
2023-04-04T17:26:31.884Z,70.20
2023-04-04T17:29:02.322Z,70.40
2023-04-04T17:31:32.032Z,70.50
2023-04-04T17:34:01.430Z,70.60
2023-04-04T17:36:30.994Z,70.60
2023-04-04T17:39:00.143Z,70.70
2023-04-04T17:41:29.389Z,70.70
2023-04-04T17:43:58.463Z,70.70
2023-04-04T17:46:29.923Z,70.60
2023-04-04T17:48:59.105Z,70.70
2023-04-04T17:51:28.783Z,70.60
2023-04-04T17:53:58.039Z,70.70
2023-04-04T17:56:27.730Z,70.60
2023-04-04T17:58:57.805Z,70.80
2023-04-04T18:01:29.534Z,71.00
2023-04-04T18:03:58.873Z,71.20
2023-04-04T18:06:28.302Z,71.20
2023-04-04T18:08:57.505Z,71.30
2023-04-04T18:11:28.294Z,71.40
2023-04-04T18:13:57.601Z,71.50
2023-04-04T18:16:28.384Z,71.60
2023-04-04T18:18:57.920Z,72.60
2023-04-04T18:21:27.773Z,71.90
2023-04-04T18:23:57.172Z,72.10
2023-04-04T18:26:26.231Z,72.10
2023-04-04T18:28:55.945Z,72.30
2023-04-04T18:31:25.032Z,72.30
2023-04-04T18:33:55.623Z,72.50
2023-04-04T18:36:24.787Z,72.50
2023-04-04T18:38:53.829Z,73.30
2023-04-04T18:41:22.903Z,72.60
2023-04-04T18:43:52.075Z,72.80
2023-04-04T18:46:21.198Z,72.90
2023-04-04T18:48:50.633Z,73.00
2023-04-04T18:51:23.487Z,73.20
2023-04-04T18:53:52.921Z,73.30
2023-04-04T18:56:22.822Z,73.30
2023-04-04T18:58:52.249Z,73.50
2023-04-04T19:01:21.549Z,73.60
2023-04-04T19:03:51.876Z,73.80
2023-04-04T19:06:27.517Z,74.00
2023-04-04T19:08:58.978Z,74.10
2023-04-04T19:11:28.215Z,74.20
2023-04-04T19:13:57.278Z,74.40
2023-04-04T19:16:26.545Z,74.70
2023-04-04T19:18:55.632Z,75.00
2023-04-04T19:21:26.288Z,75.10
2023-04-04T19:23:55.396Z,75.20
2023-04-04T19:26:24.438Z,75.30
2023-04-04T19:28:53.707Z,75.40
2023-04-04T19:31:25.213Z,75.50
2023-04-04T19:33:55.561Z,75.70
2023-04-04T19:36:27.927Z,75.90
2023-04-04T19:38:57.504Z,76.10
2023-04-04T19:41:36.317Z,76.20
2023-04-04T19:44:06.603Z,76.40
2023-04-04T19:46:36.154Z,76.40
2023-04-04T19:49:12.034Z,76.60
2023-04-04T19:51:50.398Z,76.80
2023-04-04T19:54:25.141Z,77.00
2023-04-04T19:56:59.555Z,77.30
2023-04-04T20:00:05.087Z,77.60
2023-04-04T20:02:51.432Z,78.00
2023-04-04T20:05:56.546Z,78.10
2023-04-04T20:08:34.787Z,78.40
2023-04-04T20:11:03.899Z,78.40
2023-04-04T20:13:34.721Z,78.70
2023-04-04T20:16:06.446Z,79.10
2023-04-04T20:18:37.738Z,79.60
2023-04-04T20:21:07.910Z,80.10
2023-04-04T20:23:45.923Z,80.40
2023-04-04T20:26:38.037Z,80.40
2023-04-04T20:29:09.024Z,80.90
2023-04-04T20:31:43.057Z,81.30
2023-04-04T20:34:38.694Z,81.90
2023-04-04T20:37:10.993Z,82.50
2023-04-04T20:39:47.892Z,82.60
2023-04-04T20:42:33.895Z,83.20
2023-04-04T20:45:30.078Z,83.50
2023-04-04T20:48:00.738Z,84.00
2023-04-04T20:50:47.473Z,84.10
2023-04-04T20:53:20.365Z,84.70
2023-04-04T20:55:51.544Z,84.80
2023-04-04T20:58:29.328Z,84.90
2023-04-04T21:01:00.012Z,85.30
2023-04-04T21:03:32.666Z,85.50
2023-04-04T21:06:09.722Z,86.00
2023-04-04T21:08:43.441Z,86.40
2023-04-04T21:11:15.090Z,86.70
2023-04-04T21:13:45.999Z,87.20
2023-04-04T21:16:17.949Z,87.40
2023-04-04T21:18:47.379Z,87.60
2023-04-04T21:21:18.920Z,87.80
2023-04-04T21:23:50.668Z,88.00
2023-04-04T21:26:33.052Z,88.20
2023-04-04T21:29:04.247Z,88.50
2023-04-04T21:31:37.400Z,88.70
2023-04-04T21:34:11.898Z,88.90
2023-04-04T21:36:41.007Z,89.20
2023-04-04T21:39:13.167Z,89.40
2023-04-04T21:41:44.944Z,89.80
2023-04-04T21:44:13.993Z,90.00
2023-04-04T21:46:43.764Z,90.10
2023-04-04T21:49:12.764Z,90.20
2023-04-04T21:51:42.432Z,90.20
2023-04-04T21:54:11.651Z,90.30
2023-04-04T21:56:40.758Z,90.40
2023-04-04T21:59:11.793Z,90.50
2023-04-04T22:01:41.109Z,90.50
2023-04-04T22:04:10.355Z,90.60
2023-04-04T22:06:39.365Z,90.60
2023-04-04T22:09:08.725Z,90.70
2023-04-04T22:11:44.293Z,90.70
2023-04-04T22:14:18.148Z,90.70
2023-04-04T22:16:47.563Z,90.80
2023-04-04T22:19:16.765Z,90.80
2023-04-04T22:21:48.419Z,90.90
2023-04-04T22:24:18.919Z,90.90
2023-04-04T22:26:50.524Z,91.00
2023-04-04T22:29:21.078Z,91.00
2023-04-04T22:31:50.188Z,91.00
2023-04-04T22:34:19.275Z,91.10
2023-04-04T22:36:48.293Z,91.10
2023-04-04T22:39:20.932Z,91.20
2023-04-04T22:41:50.053Z,91.20
2023-04-04T22:44:20.406Z,91.20
2023-04-04T22:46:49.361Z,91.20
2023-04-04T22:49:18.403Z,91.30
2023-04-04T22:51:47.887Z,91.30
2023-04-04T22:54:17.286Z,91.30
2023-04-04T22:56:46.595Z,91.40
2023-04-04T22:59:15.731Z,91.40
2023-04-04T23:01:46.320Z,91.40
2023-04-04T23:04:16.286Z,91.40
2023-04-04T23:06:46.456Z,91.40
2023-04-04T23:09:15.454Z,91.40
2023-04-04T23:11:44.473Z,91.40
2023-04-04T23:14:14.786Z,91.40
2023-04-04T23:16:45.576Z,91.40
2023-04-04T23:19:14.784Z,91.40
2023-04-04T23:21:44.018Z,91.40
2023-04-04T23:24:13.131Z,91.40
2023-04-04T23:26:42.197Z,91.40
2023-04-04T23:29:11.253Z,91.30
2023-04-04T23:31:40.292Z,91.30
2023-04-04T23:34:10.858Z,91.30
2023-04-04T23:36:39.941Z,91.30
2023-04-04T23:39:09.148Z,91.30
2023-04-04T23:41:38.155Z,91.30
2023-04-04T23:44:07.437Z,91.30
2023-04-04T23:46:36.819Z,91.30
2023-04-04T23:49:06.036Z,91.30
2023-04-04T23:51:39.086Z,91.20
2023-04-04T23:54:09.383Z,91.20
2023-04-04T23:56:38.618Z,91.10
2023-04-04T23:59:07.911Z,91.20
